Time;durP1;ratioP1;P1;durP2;ratioP2;P2;SDS_P1;SDS_P2;PMS_P1;PMS_P2;Temp;Humidity;BMP_temperature;BMP_pressure;BME280_temperature;BME280_humidity;BME280_pressure;Samples;Min_cycle;Max_cycle;Signal;HPM_P1;HPM_P2
2023/02/24 00:00:37;;;;;;;10.07;8.43;;;12.40;96.70;;;;;;5088156;28;20044;-74
2023/02/24 00:03:09;;;;;;;11.63;8.25;;;12.40;96.70;;;;;;5091396;28;20051;-74
2023/02/24 00:05:41;;;;;;;11.02;8.32;;;12.40;96.70;;;;;;5083423;28;20044;-74
2023/02/24 00:08:09;;;;;;;9.85;8.13;;;12.40;96.70;;;;;;5092453;28;20044;-74
2023/02/24 00:10:37;;;;;;;11.98;9.02;;;12.40;96.70;;;;;;5096447;28;20054;-74
2023/02/24 00:13:05;;;;;;;10.75;9.07;;;12.40;96.70;;;;;;5080810;28;20044;-76
2023/02/24 00:15:33;;;;;;;11.88;9.38;;;12.40;96.70;;;;;;5090472;28;20122;-74
2023/02/24 00:18:05;;;;;;;17.45;11.30;;;12.40;96.70;;;;;;5093110;28;20319;-74
2023/02/24 00:20:35;;;;;;;12.90;11.32;;;12.40;96.70;;;;;;5101069;28;20042;-74
2023/02/24 00:23:04;;;;;;;14.52;11.93;;;12.40;96.70;;;;;;5103593;28;20044;-74
2023/02/24 00:25:33;;;;;;;13.32;10.88;;;12.30;96.70;;;;;;5093999;28;20044;-74
2023/02/24 00:28:01;;;;;;;14.90;10.52;;;12.30;96.70;;;;;;5090920;28;20058;-75
2023/02/24 00:30:31;;;;;;;14.80;10.13;;;12.30;96.70;;;;;;5093818;28;20148;-75
2023/02/24 00:33:01;;;;;;;16.30;10.57;;;12.30;96.70;;;;;;5074964;28;20047;-74
2023/02/24 00:35:31;;;;;;;11.20;9.02;;;12.30;96.70;;;;;;5101995;28;20124;-74
2023/02/24 00:38:00;;;;;;;10.18;9.00;;;12.30;96.70;;;;;;5086843;28;20489;-75
2023/02/24 00:40:30;;;;;;;12.50;8.65;;;12.30;96.70;;;;;;5085603;28;20101;-75
2023/02/24 00:42:59;;;;;;;12.10;8.43;;;12.20;96.70;;;;;;5084098;28;20075;-74
2023/02/24 00:45:29;;;;;;;9.45;7.88;;;12.20;96.70;;;;;;5095298;28;20112;-74
2023/02/24 00:47:57;;;;;;;10.15;8.88;;;12.20;96.70;;;;;;5094817;28;20082;-75
2023/02/24 00:50:25;;;;;;;11.55;8.63;;;12.10;96.70;;;;;;5080348;28;20039;-74
2023/02/24 00:52:53;;;;;;;8.93;7.90;;;12.10;96.70;;;;;;5074591;28;20117;-74
2023/02/24 00:55:22;;;;;;;9.70;7.57;;;12.10;96.70;;;;;;5087455;28;20044;-71
2023/02/24 00:57:51;;;;;;;9.00;7.60;;;12.10;96.70;;;;;;5095379;28;20047;-71
2023/02/24 01:00:20;;;;;;;7.90;6.85;;;12.00;96.70;;;;;;5073147;28;20450;-72
2023/02/24 01:02:47;;;;;;;9.82;8.00;;;12.00;96.70;;;;;;5081187;28;20058;-72
2023/02/24 01:05:15;;;;;;;8.93;7.30;;;12.00;96.70;;;;;;5092565;28;20071;-71
2023/02/24 01:07:43;;;;;;;9.32;7.22;;;12.00;96.70;;;;;;5093354;28;20040;-72
2023/02/24 01:10:22;;;;;;;9.10;7.43;;;12.00;96.70;;;;;;5083208;28;20052;-72
2023/02/24 01:12:52;;;;;;;8.98;7.43;;;11.90;96.70;;;;;;5069436;28;20117;-71
2023/02/24 01:15:22;;;;;;;9.90;7.20;;;12.00;96.70;;;;;;5096541;28;20039;-72
2023/02/24 01:17:50;;;;;;;9.00;6.93;;;12.00;96.70;;;;;;5088966;28;20543;-71
2023/02/24 01:20:18;;;;;;;8.85;7.68;;;11.90;96.70;;;;;;5092309;28;20048;-72
2023/02/24 01:22:49;;;;;;;9.50;7.43;;;11.90;96.70;;;;;;5081924;28;20150;-71
2023/02/24 01:25:19;;;;;;;10.68;6.80;;;11.90;96.70;;;;;;5092156;28;20532;-72
2023/02/24 01:27:47;;;;;;;9.25;7.25;;;11.90;96.70;;;;;;5084598;28;20093;-71
2023/02/24 01:30:17;;;;;;;10.23;7.50;;;11.80;96.70;;;;;;5096258;28;20575;-71
2023/02/24 01:32:45;;;;;;;10.93;7.43;;;11.90;96.70;;;;;;5080457;28;20047;-72
2023/02/24 01:35:15;;;;;;;12.05;7.32;;;11.80;96.70;;;;;;5092652;28;20084;-71
2023/02/24 01:37:44;;;;;;;10.00;7.07;;;11.80;96.70;;;;;;5079850;28;20040;-71
2023/02/24 01:40:17;;;;;;;8.98;6.75;;;11.80;96.70;;;;;;5084088;28;20040;-71
2023/02/24 01:42:46;;;;;;;11.18;8.27;;;11.80;96.70;;;;;;5083153;28;20108;-71
2023/02/24 01:45:20;;;;;;;13.55;8.88;;;11.70;96.70;;;;;;5075214;28;20139;-73
2023/02/24 01:47:49;;;;;;;11.02;8.18;;;11.70;96.70;;;;;;5101577;28;21300;-72
2023/02/24 01:50:20;;;;;;;10.23;7.97;;;11.70;96.70;;;;;;5090350;28;20047;-72
2023/02/24 01:52:54;;;;;;;9.50;7.57;;;11.60;96.70;;;;;;5096561;28;20047;-73
2023/02/24 01:55:27;;;;;;;8.68;7.53;;;11.60;96.70;;;;;;5098033;28;20050;-73
2023/02/24 01:57:59;;;;;;;11.13;8.00;;;11.60;96.70;;;;;;5085851;28;20424;-72
2023/02/24 02:00:37;;;;;;;11.00;7.95;;;11.60;96.70;;;;;;5096044;28;20982;-72
2023/02/24 02:03:12;;;;;;;8.82;7.75;;;11.60;96.70;;;;;;5093457;28;20051;-72
2023/02/24 02:05:41;;;;;;;11.60;8.40;;;11.50;96.70;;;;;;5090156;28;20043;-73
2023/02/24 02:08:10;;;;;;;11.75;9.00;;;11.50;96.70;;;;;;5100639;28;20054;-73
2023/02/24 02:10:40;;;;;;;12.75;9.30;;;11.50;96.70;;;;;;5066414;28;20068;-72
2023/02/24 02:13:07;;;;;;;11.32;9.35;;;11.50;96.70;;;;;;5098084;28;20094;-72
2023/02/24 02:15:46;;;;;;;13.38;9.70;;;11.50;96.70;;;;;;5081174;28;20047;-72
2023/02/24 02:18:23;;;;;;;14.80;11.07;;;11.40;96.70;;;;;;5085087;28;20085;-73
2023/02/24 02:21:18;;;;;;;13.77;10.85;;;11.40;96.70;;;;;;5089558;28;20048;-72
2023/02/24 02:24:13;;;;;;;17.25;12.15;;;11.30;96.70;;;;;;5065142;28;20079;-72
2023/02/24 02:27:19;;;;;;;16.50;11.65;;;11.30;96.70;;;;;;5099005;28;20072;-72
2023/02/24 02:30:44;;;;;;;17.15;12.23;;;11.40;96.70;;;;;;5093519;28;20063;-72
2023/02/24 02:33:43;;;;;;;14.75;11.52;;;11.20;96.70;;;;;;5013013;28;20052;-72
2023/02/24 02:36:21;;;;;;;15.50;11.88;;;11.20;96.70;;;;;;5094815;28;20051;-73
2023/02/24 02:38:56;;;;;;;14.95;11.93;;;11.10;96.70;;;;;;5082229;28;20084;-73
2023/02/24 02:41:29;;;;;;;16.48;12.50;;;11.10;96.70;;;;;;5080363;28;20546;-72
2023/02/24 02:44:06;;;;;;;17.55;11.15;;;11.10;96.70;;;;;;5095645;28;20039;-72
2023/02/24 02:46:41;;;;;;;14.20;11.65;;;11.10;96.70;;;;;;5075784;28;20135;-73
2023/02/24 02:49:16;;;;;;;15.60;11.68;;;11.20;96.70;;;;;;5092155;28;20561;-72
2023/02/24 02:51:50;;;;;;;16.45;11.80;;;11.20;96.70;;;;;;5090297;28;20036;-72
2023/02/24 02:54:26;;;;;;;14.35;10.70;;;11.20;96.70;;;;;;5085933;28;20155;-72
2023/02/24 02:56:58;;;;;;;14.23;10.88;;;11.20;96.70;;;;;;5083947;28;20058;-72
2023/02/24 02:59:29;;;;;;;14.05;11.30;;;11.20;96.70;;;;;;5080754;28;20110;-72
2023/02/24 03:02:10;;;;;;;14.60;10.85;;;11.20;96.70;;;;;;5062047;28;20048;-72
2023/02/24 03:04:43;;;;;;;17.17;10.82;;;11.20;96.70;;;;;;5092432;28;20054;-73
2023/02/24 03:07:16;;;;;;;10.70;9.35;;;11.20;96.70;;;;;;5091406;28;20052;-72
2023/02/24 03:09:48;;;;;;;11.98;9.38;;;11.30;96.70;;;;;;5075546;28;20066;-72
2023/02/24 03:12:21;;;;;;;12.57;9.70;;;11.30;96.70;;;;;;5103248;28;20043;-73
2023/02/24 03:14:57;;;;;;;13.82;8.70;;;11.30;96.70;;;;;;5091477;28;20498;-73
2023/02/24 03:17:29;;;;;;;11.02;8.50;;;11.30;96.70;;;;;;5098890;28;20044;-73
2023/02/24 03:20:13;;;;;;;11.20;7.93;;;11.30;96.70;;;;;;5085872;28;20044;-72
2023/02/24 03:22:50;;;;;;;9.52;7.30;;;11.30;96.70;;;;;;5094139;28;20249;-72
2023/02/24 03:25:23;;;;;;;8.23;7.20;;;11.30;96.70;;;;;;5072420;28;20056;-73
2023/02/24 03:27:57;;;;;;;10.35;7.80;;;11.30;96.70;;;;;;5070664;28;20040;-72
2023/02/24 03:30:31;;;;;;;8.88;7.45;;;11.30;96.70;;;;;;5096290;28;20177;-73
2023/02/24 03:33:05;;;;;;;10.95;8.13;;;11.30;96.70;;;;;;5093741;28;20478;-72
2023/02/24 03:35:38;;;;;;;10.52;7.95;;;11.30;96.70;;;;;;5088849;28;20416;-72
2023/02/24 03:38:09;;;;;;;11.32;8.43;;;11.30;96.70;;;;;;5090554;28;20039;-73
2023/02/24 03:40:37;;;;;;;13.27;7.43;;;11.30;96.70;;;;;;5084897;28;20138;-72
2023/02/24 03:43:10;;;;;;;14.98;8.98;;;11.30;96.70;;;;;;5065933;28;20105;-72
2023/02/24 03:45:41;;;;;;;11.80;8.75;;;11.30;96.70;;;;;;5103468;28;20047;-71
2023/02/24 03:48:13;;;;;;;10.73;8.10;;;11.30;96.70;;;;;;5094276;28;20051;-72
2023/02/24 03:50:44;;;;;;;12.45;8.80;;;11.30;96.70;;;;;;5077743;28;20441;-71
2023/02/24 03:53:43;;;;;;;12.32;8.27;;;11.30;96.70;;;;;;5075217;28;20078;-72
2023/02/24 03:56:25;;;;;;;13.35;8.90;;;11.30;96.70;;;;;;5101978;28;20051;-72
2023/02/24 03:59:15;;;;;;;12.07;8.65;;;11.30;96.70;;;;;;5089664;28;20040;-72
2023/02/24 04:01:50;;;;;;;10.55;8.35;;;11.30;96.70;;;;;;5092046;28;20096;-71
2023/02/24 04:04:30;;;;;;;9.68;8.63;;;11.30;96.70;;;;;;5075493;28;20155;-71
2023/02/24 04:07:13;;;;;;;9.85;8.38;;;11.30;96.70;;;;;;5084634;28;20052;-71
2023/02/24 04:09:51;;;;;;;9.43;7.82;;;11.30;96.70;;;;;;5072870;28;20118;-71
2023/02/24 04:12:26;;;;;;;10.63;8.32;;;11.30;96.70;;;;;;5094960;28;20077;-72
2023/02/24 04:15:07;;;;;;;10.50;7.90;;;11.30;96.70;;;;;;5080014;28;20072;-71
2023/02/24 04:17:41;;;;;;;9.70;8.23;;;11.30;96.70;;;;;;5081880;28;20060;-72
2023/02/24 04:20:17;;;;;;;13.50;8.93;;;11.30;96.70;;;;;;5074849;28;20762;-71
2023/02/24 04:22:55;;;;;;;12.95;8.88;;;11.30;96.70;;;;;;5069150;28;20066;-72
2023/02/24 04:25:26;;;;;;;12.40;8.48;;;11.20;96.70;;;;;;5087529;28;20079;-72
2023/02/24 04:27:59;;;;;;;12.13;8.30;;;11.30;96.70;;;;;;5099015;28;20055;-72
2023/02/24 04:30:32;;;;;;;11.30;7.32;;;11.30;96.70;;;;;;5077832;28;20074;-74
2023/02/24 04:33:02;;;;;;;11.48;8.13;;;11.30;96.70;;;;;;5088819;28;20057;-74
2023/02/24 04:35:32;;;;;;;13.80;8.25;;;11.30;96.70;;;;;;5091148;28;20082;-75
2023/02/24 04:38:01;;;;;;;11.88;8.90;;;11.30;96.70;;;;;;5101499;27;20047;-74
2023/02/24 04:40:31;;;;;;;10.35;8.40;;;11.30;96.70;;;;;;5084438;28;20050;-74
2023/02/24 04:42:59;;;;;;;12.43;8.32;;;11.30;96.70;;;;;;5090422;28;20105;-75
2023/02/24 04:45:29;;;;;;;11.13;8.68;;;11.30;96.70;;;;;;5087661;28;20028;-75
2023/02/24 04:47:59;;;;;;;11.63;8.48;;;11.30;96.70;;;;;;5074061;28;20044;-74
2023/02/24 04:50:30;;;;;;;10.10;7.80;;;11.30;96.70;;;;;;5095904;28;20088;-75
2023/02/24 04:53:00;;;;;;;10.50;8.05;;;11.30;96.70;;;;;;5082668;28;20155;-75
2023/02/24 04:55:33;;;;;;;9.52;8.38;;;11.30;96.70;;;;;;5088747;28;20048;-74
2023/02/24 04:58:01;;;;;;;13.18;8.55;;;11.30;96.70;;;;;;5076356;28;20074;-74
2023/02/24 05:00:34;;;;;;;9.73;8.13;;;11.20;96.70;;;;;;5077025;28;20124;-74
2023/02/24 05:03:04;;;;;;;9.52;8.20;;;11.30;96.70;;;;;;5075272;28;20037;-74
2023/02/24 05:05:32;;;;;;;9.35;8.20;;;11.30;96.70;;;;;;5086020;28;20044;-74
2023/02/24 05:08:03;;;;;;;12.35;8.30;;;11.40;96.70;;;;;;5083127;28;20085;-75
2023/02/24 05:10:37;;;;;;;10.77;8.48;;;11.30;96.70;;;;;;5084563;28;20493;-75
2023/02/24 05:13:06;;;;;;;9.60;8.10;;;11.30;96.70;;;;;;5089320;28;20112;-74
2023/02/24 05:15:38;;;;;;;10.27;8.27;;;11.40;96.70;;;;;;5077974;28;20044;-75
2023/02/24 05:18:08;;;;;;;9.18;8.20;;;11.40;96.70;;;;;;5078697;28;20447;-74
2023/02/24 05:23:25;;;;;;;12.18;8.45;;;11.40;96.70;;;;;;5095229;28;20039;-75
2023/02/24 05:25:54;;;;;;;13.15;8.52;;;11.40;96.70;;;;;;5069737;28;20044;-73
2023/02/24 05:28:24;;;;;;;11.68;8.98;;;11.40;96.70;;;;;;5099446;28;20485;-75
2023/02/24 05:30:54;;;;;;;11.05;8.43;;;11.40;96.70;;;;;;5094411;28;20058;-75
2023/02/24 05:33:23;;;;;;;10.68;8.02;;;11.30;96.70;;;;;;5095993;28;20077;-74
2023/02/24 05:35:51;;;;;;;9.88;7.88;;;11.30;96.70;;;;;;5070675;28;20036;-74
2023/02/24 05:38:19;;;;;;;9.60;8.43;;;11.40;96.70;;;;;;5063046;28;20051;-74
2023/02/24 05:40:48;;;;;;;10.88;8.73;;;11.40;96.70;;;;;;5084408;28;20424;-75
2023/02/24 05:43:18;;;;;;;9.70;8.57;;;11.40;96.70;;;;;;5083451;28;20059;-75
2023/02/24 05:45:46;;;;;;;14.57;9.27;;;11.40;96.70;;;;;;5077507;28;20915;-75
2023/02/24 05:48:14;;;;;;;11.63;8.57;;;11.40;96.70;;;;;;5092884;28;20052;-74
2023/02/24 05:50:51;;;;;;;10.93;8.90;;;11.40;96.70;;;;;;5085526;28;20052;-74
2023/02/24 05:53:19;;;;;;;8.90;7.88;;;11.40;96.70;;;;;;5098496;28;20043;-75
2023/02/24 05:55:47;;;;;;;9.95;7.90;;;11.30;96.70;;;;;;5082823;28;20043;-75
2023/02/24 05:58:17;;;;;;;10.20;7.78;;;11.30;96.70;;;;;;5102821;28;20379;-75
2023/02/24 06:00:45;;;;;;;10.50;7.40;;;11.40;96.70;;;;;;5082904;28;20047;-75
2023/02/24 06:03:16;;;;;;;9.90;8.27;;;11.40;96.70;;;;;;5088801;28;20087;-74
2023/02/24 06:05:52;;;;;;;9.85;8.05;;;11.40;96.70;;;;;;5099902;28;20100;-75
2023/02/24 06:08:23;;;;;;;11.73;7.93;;;11.30;96.70;;;;;;5089947;28;20044;-76
2023/02/24 06:10:51;;;;;;;9.32;7.55;;;11.30;96.70;;;;;;5089648;28;20392;-76
2023/02/24 06:13:21;;;;;;;10.80;8.10;;;11.20;96.70;;;;;;5088307;28;20190;-76
2023/02/24 06:15:56;;;;;;;9.95;8.00;;;11.20;96.70;;;;;;5091615;28;20096;-76
2023/02/24 06:18:24;;;;;;;10.77;7.35;;;11.20;96.70;;;;;;5097408;28;20047;-76
2023/02/24 06:20:52;;;;;;;9.57;8.02;;;11.20;96.70;;;;;;5099487;28;20051;-76
2023/02/24 06:23:21;;;;;;;10.63;8.07;;;11.20;96.70;;;;;;5097786;28;20126;-75
2023/02/24 06:25:49;;;;;;;11.48;8.10;;;11.10;96.70;;;;;;5087673;28;20050;-76
2023/02/24 06:28:18;;;;;;;14.15;8.23;;;11.20;96.70;;;;;;5106269;28;20647;-75
2023/02/24 06:30:49;;;;;;;12.63;9.75;;;11.20;96.70;;;;;;5096845;28;20708;-75
2023/02/24 06:33:17;;;;;;;9.32;8.15;;;11.20;96.70;;;;;;5093503;28;20048;-75
2023/02/24 06:35:46;;;;;;;10.88;8.38;;;11.20;96.70;;;;;;5099322;28;20044;-76
2023/02/24 06:38:14;;;;;;;10.57;8.02;;;11.20;96.70;;;;;;5087755;28;20133;-75
2023/02/24 06:40:42;;;;;;;13.30;8.52;;;11.20;96.70;;;;;;5086236;28;20039;-75
2023/02/24 06:43:11;;;;;;;10.93;8.27;;;11.30;96.70;;;;;;5087195;28;20070;-75
2023/02/24 06:45:39;;;;;;;11.40;8.63;;;11.30;96.70;;;;;;5079501;28;20036;-76
2023/02/24 06:48:10;;;;;;;18.73;12.88;;;11.30;96.70;;;;;;5097062;28;20078;-76
2023/02/24 06:50:39;;;;;;;18.10;13.73;;;11.30;96.70;;;;;;5105359;28;20131;-75
2023/02/24 06:53:15;;;;;;;18.15;11.18;;;11.30;96.70;;;;;;5093098;28;20044;-76
2023/02/24 06:55:50;;;;;;;14.23;10.25;;;11.30;96.70;;;;;;5088756;28;20126;-76
2023/02/24 06:58:19;;;;;;;12.77;9.93;;;11.40;96.70;;;;;;5089530;28;20048;-76
2023/02/24 07:00:57;;;;;;;14.40;9.68;;;11.30;96.70;;;;;;5085481;28;20109;-75
2023/02/24 07:03:39;;;;;;;14.73;9.50;;;11.30;96.70;;;;;;5102523;28;20048;-76
2023/02/24 07:06:28;;;;;;;11.30;9.52;;;11.40;96.70;;;;;;5088677;28;20090;-77
2023/02/24 07:08:58;;;;;;;10.88;8.38;;;11.40;96.70;;;;;;5087384;28;20056;-76
2023/02/24 07:11:28;;;;;;;13.07;8.27;;;11.40;96.70;;;;;;5080402;28;20063;-76
2023/02/24 07:13:57;;;;;;;10.75;8.38;;;11.40;96.70;;;;;;5087561;28;20506;-77
2023/02/24 07:16:29;;;;;;;13.05;8.75;;;11.40;96.70;;;;;;5088883;28;20052;-75
2023/02/24 07:19:02;;;;;;;11.65;8.52;;;11.40;96.70;;;;;;5084222;28;20573;-75
2023/02/24 07:21:38;;;;;;;11.57;8.23;;;11.50;96.70;;;;;;5090528;28;20052;-75
2023/02/24 07:24:07;;;;;;;12.80;8.83;;;11.50;96.70;;;;;;5091746;28;20118;-76
2023/02/24 07:26:40;;;;;;;10.25;8.00;;;11.50;96.70;;;;;;5093695;28;20304;-76
2023/02/24 07:29:10;;;;;;;10.02;8.35;;;11.50;96.70;;;;;;5091329;28;20123;-76
2023/02/24 07:31:39;;;;;;;10.98;8.90;;;11.60;96.70;;;;;;5101211;28;20071;-77
2023/02/24 07:34:13;;;;;;;10.95;8.95;;;11.60;96.70;;;;;;5090920;28;20036;-75
2023/02/24 07:36:48;;;;;;;11.90;8.45;;;11.60;96.70;;;;;;5094409;28;20856;-75
2023/02/24 07:39:18;;;;;;;13.90;8.65;;;11.50;96.70;;;;;;5078493;28;20050;-75
2023/02/24 07:41:48;;;;;;;10.73;8.30;;;11.40;96.70;;;;;;5088516;28;20554;-75
2023/02/24 07:44:18;;;;;;;11.20;8.68;;;11.40;96.70;;;;;;5085408;28;20117;-76
2023/02/24 07:46:47;;;;;;;10.18;8.70;;;11.50;96.70;;;;;;5093164;28;20078;-75
2023/02/24 07:49:19;;;;;;;12.15;9.02;;;11.60;96.70;;;;;;5085404;28;20039;-75
2023/02/24 07:51:51;;;;;;;9.40;8.43;;;11.60;96.70;;;;;;5088953;28;20043;-75
2023/02/24 07:54:22;;;;;;;15.57;10.68;;;11.70;96.70;;;;;;5097733;28;20514;-77
2023/02/24 07:56:57;;;;;;;12.15;8.90;;;11.70;96.70;;;;;;5093598;28;20058;-75
2023/02/24 07:59:28;;;;;;;10.60;8.60;;;11.70;96.70;;;;;;5083590;28;20067;-76
2023/02/24 08:01:57;;;;;;;11.55;8.68;;;11.80;96.70;;;;;;5095912;28;20063;-75
2023/02/24 08:04:29;;;;;;;8.35;7.40;;;11.80;96.70;;;;;;5078475;28;20135;-75
2023/02/24 08:07:01;;;;;;;15.32;8.93;;;11.80;96.70;;;;;;5091379;28;20101;-75
2023/02/24 08:12:20;;;;;;;12.25;8.55;;;11.80;96.70;;;;;;5095201;28;20409;-77
2023/02/24 08:14:51;;;;;;;13.32;10.00;;;11.80;96.70;;;;;;5087634;28;20131;-77
2023/02/24 08:17:22;;;;;;;12.70;10.63;;;11.90;96.70;;;;;;5101605;28;20150;-76
2023/02/24 08:20:20;;;;;;;15.23;10.85;;;11.90;96.70;;;;;;5103153;28;20036;-77
2023/02/24 08:22:45;;;;;;;13.25;11.10;;;11.90;96.70;;;;;;5096468;28;20043;-76
2023/02/24 08:25:18;;;;;;;14.50;11.40;;;12.00;96.70;;;;;;5065116;28;20657;-77
2023/02/24 08:27:54;;;;;;;13.40;10.73;;;12.00;96.70;;;;;;5100455;28;20125;-77
2023/02/24 08:30:39;;;;;;;11.68;9.70;;;12.00;96.70;;;;;;5091112;28;20044;-77
2023/02/24 08:33:09;;;;;;;13.40;9.93;;;12.10;96.70;;;;;;5089867;28;20040;-77
2023/02/24 08:35:43;;;;;;;12.73;9.07;;;12.10;96.70;;;;;;5100505;28;20101;-76
2023/02/24 08:38:14;;;;;;;11.68;8.55;;;12.10;96.70;;;;;;5093544;28;20071;-76
2023/02/24 08:40:51;;;;;;;10.85;8.88;;;12.20;96.70;;;;;;5091609;28;20047;-76
2023/02/24 08:45:59;;;;;;;;;;;12.30;96.70;;;;;;5075678;28;20040;-75
2023/02/24 08:48:36;;;;;;;11.95;8.48;;;12.30;96.70;;;;;;5081827;28;19923;-76
2023/02/24 08:51:09;;;;;;;14.65;9.05;;;12.30;96.70;;;;;;5084907;28;20048;-76
2023/02/24 08:53:39;;;;;;;12.32;8.35;;;12.40;96.70;;;;;;5086941;28;20058;-75
2023/02/24 08:56:10;;;;;;;11.63;8.68;;;12.40;96.70;;;;;;5082660;28;20082;-76
2023/02/24 08:58:45;;;;;;;10.65;8.07;;;12.40;96.70;;;;;;5096968;28;20067;-75
2023/02/24 09:01:17;;;;;;;9.23;8.13;;;12.40;96.70;;;;;;5096080;28;20079;-75
2023/02/24 09:03:49;;;;;;;12.55;9.93;;;12.40;96.70;;;;;;5085093;28;20315;-75
2023/02/24 09:06:24;;;;;;;11.30;9.25;;;12.40;96.70;;;;;;5091428;28;20039;-76
2023/02/24 09:11:43;;;;;;;13.82;9.50;;;12.30;96.70;;;;;;5092223;28;20047;-75
2023/02/24 09:14:19;;;;;;;12.05;9.00;;;12.30;96.70;;;;;;5099268;28;20528;-76
2023/02/24 09:17:01;;;;;;;10.65;9.55;;;12.40;96.70;;;;;;5094511;28;20139;-75
2023/02/24 09:19:39;;;;;;;13.98;10.55;;;12.40;96.70;;;;;;5101460;28;20043;-75
2023/02/24 09:25:39;;;;;;;15.93;10.95;;;12.40;96.70;;;;;;5011426;28;20066;-76
2023/02/24 09:28:15;;;;;;;14.10;10.77;;;12.50;96.70;;;;;;4980805;28;20073;-76
2023/02/24 09:30:49;;;;;;;12.95;11.55;;;12.50;96.70;;;;;;4987062;28;20111;-76
2023/02/24 09:33:21;;;;;;;13.38;11.00;;;12.60;96.70;;;;;;4998204;28;20136;-76
2023/02/24 09:36:08;;;;;;;14.55;12.48;;;12.60;96.70;;;;;;5003758;28;20507;-76
2023/02/24 09:41:32;;;;;;;16.88;13.95;;;12.70;96.70;;;;;;5017352;28;20161;-76
2023/02/24 09:44:06;;;;;;;21.58;17.08;;;12.70;96.70;;;;;;5018109;28;20156;-76
2023/02/24 09:46:52;;;;;;;20.67;16.67;;;12.70;96.70;;;;;;5019511;28;20213;-75
2023/02/24 09:49:45;;;;;;;21.45;16.27;;;12.70;96.70;;;;;;4994473;28;20054;-75
2023/02/24 09:52:16;;;;;;;23.20;17.77;;;12.70;96.70;;;;;;5019075;28;20669;-74
2023/02/24 09:58:36;;;;;;;22.70;17.15;;;12.70;96.70;;;;;;4955938;28;20082;-75
2023/02/24 10:00:45;;;;;;;25.45;18.17;;;12.80;96.70;;;;;;4981944;28;20051;-75
2023/02/24 10:03:28;;;;;;;21.10;17.60;;;12.80;96.70;;;;;;4999943;28;20045;-75
2023/02/24 10:06:10;;;;;;;21.20;17.20;;;12.90;96.70;;;;;;5019479;28;20140;-76
2023/02/24 10:08:45;;;;;;;20.02;15.65;;;12.90;96.70;;;;;;4993767;28;20904;-76
2023/02/24 10:11:31;;;;;;;19.33;15.27;;;12.90;96.70;;;;;;4996414;28;20088;-75
2023/02/24 10:14:05;;;;;;;16.02;13.35;;;13.00;96.70;;;;;;5003387;28;20053;-76
2023/02/24 10:16:42;;;;;;;16.92;13.48;;;13.00;96.70;;;;;;5011764;28;20046;-75
2023/02/24 10:19:22;;;;;;;19.48;14.95;;;13.10;96.70;;;;;;5018149;28;20529;-76
2023/02/24 10:22:01;;;;;;;18.65;14.43;;;13.10;96.70;;;;;;5001366;28;20806;-76
2023/02/24 10:24:34;;;;;;;17.95;13.07;;;13.20;96.70;;;;;;4987708;28;20050;-75
2023/02/24 10:27:11;;;;;;;18.00;13.70;;;13.20;96.70;;;;;;5002297;28;20069;-75
2023/02/24 10:30:04;;;;;;;16.42;13.00;;;13.30;96.70;;;;;;5017887;28;20099;-75
2023/02/24 10:32:42;;;;;;;17.65;13.07;;;13.40;96.70;;;;;;4991059;28;20046;-75
2023/02/24 10:35:15;;;;;;;17.27;12.70;;;13.50;96.70;;;;;;5073169;28;20056;-76
2023/02/24 10:37:44;;;;;;;17.80;12.73;;;13.60;96.70;;;;;;5101904;28;20146;-76
2023/02/24 10:40:23;;;;;;;14.77;12.55;;;13.60;96.70;;;;;;5091231;28;20100;-75
2023/02/24 10:43:06;;;;;;;13.63;11.93;;;13.60;96.70;;;;;;5086324;28;20047;-75
2023/02/24 10:45:43;;;;;;;15.80;12.82;;;13.70;96.70;;;;;;5082096;28;20048;-75
2023/02/24 10:48:23;;;;;;;16.30;13.25;;;13.80;96.70;;;;;;5104230;28;20116;-75
2023/02/24 10:51:18;;;;;;;15.80;12.23;;;13.80;96.70;;;;;;5100832;28;20135;-76
2023/02/24 10:56:40;;;;;;;13.90;10.82;;;13.80;96.70;;;;;;5093339;28;20043;-76
2023/02/24 11:01:58;;;;;;;15.05;11.18;;;13.90;96.70;;;;;;5100140;28;20048;-77
2023/02/24 11:04:42;;;;;;;17.13;11.65;;;13.90;96.70;;;;;;5088446;28;20040;-75
2023/02/24 11:07:23;;;;;;;14.75;11.50;;;13.90;96.70;;;;;;5094487;28;20067;-75
2023/02/24 11:10:10;;;;;;;13.15;11.32;;;14.10;96.70;;;;;;5086910;28;20054;-75
2023/02/24 11:18:31;;;;;;;10.82;8.63;;;14.30;96.70;;;;;;5093761;28;20401;-76
2023/02/24 11:21:02;;;;;;;9.00;7.75;;;14.30;96.70;;;;;;5092034;28;20054;-75
2023/02/24 11:23:37;;;;;;;8.27;6.78;;;14.40;96.70;;;;;;5076261;28;20044;-75
2023/02/24 11:26:15;;;;;;;7.72;6.60;;;14.40;96.70;;;;;;5103362;28;20074;-75
2023/02/24 11:28:59;;;;;;;7.47;5.50;;;14.40;96.70;;;;;;5094716;28;20052;-75
2023/02/24 11:31:41;;;;;;;8.20;5.95;;;14.40;96.70;;;;;;5084961;28;20043;-75
2023/02/24 11:34:20;;;;;;;9.63;7.03;;;14.40;96.70;;;;;;5098839;28;20062;-75
2023/02/24 11:36:58;;;;;;;10.05;7.35;;;14.40;96.70;;;;;;5103039;28;20093;-76
2023/02/24 11:40:10;;;;;;;10.95;7.72;;;14.40;96.70;;;;;;5091583;28;20044;-75
2023/02/24 11:42:44;;;;;;;8.73;6.80;;;14.50;96.70;;;;;;5034666;28;20058;-76
2023/02/24 11:45:22;;;;;;;9.48;7.13;;;14.60;96.70;;;;;;5045407;28;20331;-76
2023/02/24 11:47:56;;;;;;;7.95;6.80;;;14.70;96.70;;;;;;5040251;28;20123;-75
2023/02/24 11:50:42;;;;;;;12.07;7.20;;;14.70;96.70;;;;;;5033350;28;20094;-75
2023/02/24 11:53:23;;;;;;;10.45;7.22;;;14.90;96.70;;;;;;5048495;28;20048;-76
2023/02/24 11:55:57;;;;;;;9.40;6.28;;;14.90;96.70;;;;;;5033092;28;20044;-76
2023/02/24 11:58:33;;;;;;;8.70;6.15;;;14.90;96.70;;;;;;5058648;28;20061;-76
2023/02/24 12:01:09;;;;;;;9.32;5.80;;;14.90;96.70;;;;;;5017857;28;20079;-75
2023/02/24 12:03:49;;;;;;;9.15;6.38;;;14.80;96.70;;;;;;5020085;28;20085;-75
2023/02/24 12:06:24;;;;;;;7.80;5.85;;;14.70;96.70;;;;;;5053211;28;20057;-75
2023/02/24 12:08:59;;;;;;;6.95;5.93;;;14.70;96.70;;;;;;5084466;28;20572;-76
2023/02/24 12:11:37;;;;;;;9.68;5.50;;;14.60;96.70;;;;;;5087707;28;20055;-76
2023/02/24 12:14:18;;;;;;;9.52;5.70;;;14.60;96.70;;;;;;5104197;28;20153;-75
2023/02/24 12:16:57;;;;;;;6.57;5.28;;;14.50;96.70;;;;;;5097755;28;20061;-75
2023/02/24 12:19:34;;;;;;;9.48;5.68;;;14.50;96.70;;;;;;5099892;28;20538;-76
2023/02/24 12:22:10;;;;;;;9.70;5.65;;;14.50;96.70;;;;;;5089176;28;20059;-76
2023/02/24 12:24:40;;;;;;;;;;;14.60;96.70;;;;;;5100340;28;20039;-76
2023/02/24 12:27:17;;;;;;;7.40;5.00;;;14.70;96.70;;;;;;5092827;28;21500;-76
2023/02/24 12:30:21;;;;;;;8.68;5.03;;;14.70;96.70;;;;;;5076151;28;20150;-75
2023/02/24 12:33:00;;;;;;;7.07;5.55;;;14.80;96.70;;;;;;5102415;28;20047;-76
2023/02/24 12:35:43;;;;;;;9.60;5.55;;;14.80;96.70;;;;;;5094311;28;20409;-75
2023/02/24 12:38:29;;;;;;;8.52;6.43;;;14.80;96.70;;;;;;5101705;28;20047;-76
2023/02/24 12:41:10;;;;;;;8.65;6.00;;;14.80;96.70;;;;;;5090628;28;20062;-76
2023/02/24 12:43:46;;;;;;;8.60;6.75;;;14.80;96.70;;;;;;5093784;28;20484;-77
2023/02/24 12:46:22;;;;;;;10.57;6.95;;;14.90;96.70;;;;;;5101471;28;20082;-75
2023/02/24 12:49:24;;;;;;;11.10;7.32;;;14.90;96.70;;;;;;5101613;28;20055;-75
2023/02/24 12:52:08;;;;;;;9.18;7.50;;;15.00;96.70;;;;;;5098887;28;20108;-76
2023/02/24 12:54:45;;;;;;;9.70;7.25;;;15.00;96.70;;;;;;5093026;28;20043;-75
2023/02/24 12:57:18;;;;;;;;;;;15.10;96.70;;;;;;5092812;28;20142;-75
2023/02/24 12:59:47;;;;;;;10.00;7.35;;;15.10;96.70;;;;;;5076457;28;20411;-75
2023/02/24 13:02:24;;;;;;;9.50;7.55;;;15.10;96.70;;;;;;5103035;28;20130;-75
2023/02/24 13:04:59;;;;;;;8.88;7.47;;;15.10;96.70;;;;;;5079932;28;20055;-74
2023/02/24 13:07:50;;;;;;;9.68;7.15;;;15.10;96.70;;;;;;5089008;28;20051;-74
2023/02/24 13:10:33;;;;;;;12.48;7.80;;;15.10;96.70;;;;;;5092023;28;20043;-74
2023/02/24 13:13:08;;;;;;;9.48;7.30;;;15.10;96.70;;;;;;5092975;28;20047;-75
2023/02/24 13:15:47;;;;;;;11.45;8.43;;;15.00;96.70;;;;;;5097571;28;20051;-75
2023/02/24 13:18:23;;;;;;;9.82;7.68;;;15.00;96.70;;;;;;5085408;28;20627;-75
2023/02/24 13:21:03;;;;;;;11.25;8.18;;;15.00;96.70;;;;;;5082600;28;20051;-75
2023/02/24 13:23:37;;;;;;;9.98;8.35;;;14.90;96.70;;;;;;5090886;28;20048;-75
2023/02/24 13:26:09;;;;;;;9.80;8.23;;;14.90;96.70;;;;;;5087357;28;20051;-74
2023/02/24 13:28:37;;;;;;;11.70;8.32;;;14.80;96.70;;;;;;5100828;28;20611;-74
2023/02/24 13:31:07;;;;;;;10.13;7.72;;;14.80;96.70;;;;;;5101131;28;20053;-77
2023/02/24 13:33:37;;;;;;;10.98;7.80;;;14.80;96.70;;;;;;5095198;28;20037;-74
2023/02/24 13:36:20;;;;;;;9.27;7.13;;;14.80;96.70;;;;;;5089325;28;20047;-74
2023/02/24 13:39:02;;;;;;;11.82;7.75;;;14.80;96.70;;;;;;5094412;28;20103;-75
2023/02/24 13:41:39;;;;;;;11.43;7.43;;;14.80;96.70;;;;;;5098735;28;20062;-72
2023/02/24 13:44:26;;;;;;;9.82;7.25;;;14.80;96.70;;;;;;5091908;28;20059;-72
2023/02/24 13:47:30;;;;;;;11.15;7.15;;;14.80;96.70;;;;;;5094656;28;20138;-71